createdAt,value
2023-03-04T00:01:29.449Z,98.40
2023-03-04T00:04:04.330Z,111.18
2023-03-04T00:06:37.775Z,101.20
2023-03-04T00:09:11.261Z,109.55
2023-03-04T00:11:44.742Z,94.57
2023-03-04T00:14:18.220Z,111.97
2023-03-04T00:16:51.685Z,105.75
2023-03-04T00:19:26.517Z,98.45
2023-03-04T00:22:00.098Z,117.82
2023-03-04T00:24:35.082Z,117.97
2023-03-04T00:27:08.523Z,113.35
2023-03-04T00:29:42.164Z,118.93
2023-03-04T00:32:16.322Z,119.57
2023-03-04T00:34:51.259Z,116.53
2023-03-04T00:37:24.723Z,113.05
2023-03-04T00:39:58.231Z,118.03
2023-03-04T00:42:31.775Z,103.47
2023-03-04T00:45:05.862Z,115.47
2023-03-04T00:47:39.326Z,120.28
2023-03-04T00:50:14.621Z,117.15
2023-03-04T00:52:48.413Z,131.63
2023-03-04T00:55:21.900Z,134.18
2023-03-04T00:57:55.370Z,157.88
2023-03-04T01:00:28.866Z,123.68
2023-03-04T01:03:03.866Z,110.55
2023-03-04T01:05:38.708Z,117.18
2023-03-04T01:08:12.314Z,105.32
2023-03-04T01:10:45.986Z,117.30
2023-03-04T01:13:19.677Z,129.40
2023-03-04T01:15:53.189Z,155.52
2023-03-04T01:18:26.744Z,152.45
2023-03-04T01:21:01.836Z,146.88
2023-03-04T01:23:36.227Z,129.63
2023-03-04T01:26:09.687Z,126.50
2023-03-04T01:28:43.190Z,139.27
2023-03-04T01:31:16.659Z,159.77
2023-03-04T01:33:51.149Z,146.38
2023-03-04T01:36:26.226Z,139.98
2023-03-04T01:38:59.744Z,140.10
2023-03-04T01:41:33.448Z,145.85
2023-03-04T01:44:07.468Z,143.95
2023-03-04T01:46:49.746Z,138.27
2023-03-04T01:49:23.582Z,145.88
2023-03-04T01:51:58.476Z,139.52
2023-03-04T01:54:32.158Z,117.53
2023-03-04T01:57:16.568Z,136.65
2023-03-04T02:00:19.247Z,120.88
2023-03-04T02:05:28.316Z,128.55
2023-03-04T02:08:04.976Z,122.97
2023-03-04T02:10:38.863Z,125.68
2023-03-04T02:13:12.888Z,138.93
2023-03-04T02:15:47.186Z,144.20
2023-03-04T02:18:23.733Z,114.82
2023-03-04T02:21:06.036Z,119.78
2023-03-04T02:23:48.029Z,117.68
2023-03-04T02:26:24.487Z,132.93
2023-03-04T02:29:01.021Z,136.80
2023-03-04T02:31:36.677Z,125.85
2023-03-04T02:34:15.583Z,140.48
2023-03-04T02:36:51.096Z,118.07
2023-03-04T02:39:29.474Z,126.47
2023-03-04T02:42:05.768Z,123.50
2023-03-04T02:44:43.572Z,120.00
2023-03-04T02:47:19.597Z,119.53
2023-03-04T02:49:54.447Z,119.47
2023-03-04T02:52:29.430Z,118.30
2023-03-04T02:55:04.432Z,116.60
2023-03-04T02:57:39.297Z,117.15
2023-03-04T03:00:14.313Z,120.05
2023-03-04T03:02:49.098Z,110.38
2023-03-04T03:05:22.866Z,122.53
2023-03-04T03:07:57.465Z,129.95
2023-03-04T03:10:31.343Z,110.63
2023-03-04T03:13:06.293Z,125.05
2023-03-04T03:15:42.369Z,120.35
2023-03-04T03:18:16.670Z,107.05
2023-03-04T03:20:50.489Z,115.90
2023-03-04T03:23:24.394Z,129.60
2023-03-04T03:25:58.719Z,123.25
2023-03-04T03:28:35.683Z,118.00
2023-03-04T03:31:09.226Z,111.68
2023-03-04T03:33:43.242Z,113.63
2023-03-04T03:36:17.256Z,107.90
2023-03-04T03:38:50.746Z,112.78
2023-03-04T03:41:24.239Z,121.15
2023-03-04T03:43:59.168Z,110.35
2023-03-04T03:46:32.609Z,104.10
2023-03-04T03:49:06.085Z,114.63
2023-03-04T03:51:40.164Z,109.72
2023-03-04T03:54:13.598Z,115.65
2023-03-04T03:56:47.043Z,128.73
2023-03-04T03:59:21.887Z,111.07
2023-03-04T04:01:55.418Z,121.95
2023-03-04T04:04:29.000Z,102.20
2023-03-04T04:07:02.469Z,106.38
2023-03-04T04:09:35.977Z,103.43
2023-03-04T04:12:09.747Z,108.72
2023-03-04T04:14:44.878Z,108.05
2023-03-04T04:17:18.318Z,100.63
2023-03-04T04:19:51.764Z,101.95
2023-03-04T04:22:25.229Z,107.05
2023-03-04T04:24:58.667Z,115.90
2023-03-04T04:27:32.100Z,111.25
2023-03-04T04:30:08.178Z,100.15
2023-03-04T04:32:41.617Z,103.20
2023-03-04T04:35:15.118Z,99.13
2023-03-04T04:37:48.662Z,113.80
2023-03-04T04:40:22.147Z,107.30
2023-03-04T04:42:55.529Z,103.85
2023-03-04T04:45:30.371Z,126.03
2023-03-04T04:48:03.894Z,124.18
2023-03-04T04:50:37.368Z,100.40
2023-03-04T04:53:13.130Z,102.50
2023-03-04T04:55:46.691Z,121.30
2023-03-04T04:58:20.216Z,112.13
2023-03-04T05:00:58.209Z,109.75
2023-03-04T05:03:31.777Z,114.28
2023-03-04T05:06:06.958Z,114.07
2023-03-04T05:08:40.576Z,112.35
2023-03-04T05:11:14.078Z,103.22
2023-03-04T05:13:48.422Z,114.30
2023-03-04T05:16:23.509Z,118.72
2023-03-04T05:18:57.017Z,114.95
2023-03-04T05:21:30.473Z,120.47
2023-03-04T05:24:04.102Z,115.47
2023-03-04T05:26:38.162Z,96.72
2023-03-04T05:29:11.797Z,108.50
2023-03-04T05:31:46.675Z,105.80
2023-03-04T05:34:20.466Z,103.82
2023-03-04T05:36:54.137Z,97.40
2023-03-04T05:39:27.583Z,111.13
2023-03-04T05:42:01.018Z,106.72
2023-03-04T05:44:34.462Z,101.13
2023-03-04T05:47:09.322Z,116.88
2023-03-04T05:49:43.116Z,115.57
2023-03-04T05:52:16.600Z,120.45
2023-03-04T05:54:50.059Z,124.57
2023-03-04T05:57:23.500Z,113.15
2023-03-04T05:59:56.954Z,116.65
2023-03-04T06:02:31.794Z,109.15
2023-03-04T06:05:06.284Z,115.75
2023-03-04T06:07:39.858Z,128.38
2023-03-04T06:10:15.189Z,117.90
2023-03-04T06:12:48.684Z,130.93
2023-03-04T06:15:22.112Z,99.05
2023-03-04T06:17:56.996Z,111.18
2023-03-04T06:20:30.737Z,102.90
2023-03-04T06:23:04.603Z,126.90
2023-03-04T06:25:38.074Z,117.57
2023-03-04T06:28:11.595Z,125.35
2023-03-04T06:30:45.078Z,125.63
2023-03-04T06:33:20.382Z,124.07
2023-03-04T06:35:56.729Z,125.72
2023-03-04T06:38:30.828Z,113.25
2023-03-04T06:41:14.479Z,129.18
2023-03-04T06:43:48.044Z,138.10
2023-03-04T06:46:21.820Z,131.80
2023-03-04T06:48:56.720Z,136.43
2023-03-04T06:51:30.541Z,142.43
2023-03-04T06:54:04.009Z,132.48
2023-03-04T06:56:37.819Z,118.45
2023-03-04T06:59:11.336Z,125.90
2023-03-04T07:01:44.862Z,124.93
2023-03-04T07:04:19.754Z,134.18
2023-03-04T07:06:53.562Z,154.07
2023-03-04T07:09:26.999Z,138.50
2023-03-04T07:12:00.651Z,141.32
2023-03-04T07:14:34.428Z,165.98
2023-03-04T07:17:07.911Z,131.60
2023-03-04T07:19:42.846Z,136.65
2023-03-04T07:22:16.313Z,115.30
2023-03-04T07:24:49.915Z,116.15
2023-03-04T07:27:23.366Z,111.82
2023-03-04T07:29:56.846Z,143.85
2023-03-04T07:32:30.434Z,110.35
2023-03-04T07:35:06.007Z,130.35
2023-03-04T07:37:40.302Z,130.52
2023-03-04T07:40:14.387Z,103.13
2023-03-04T07:42:51.485Z,87.85
2023-03-04T07:45:25.910Z,83.70
2023-03-04T07:47:59.846Z,98.70
2023-03-04T07:50:34.676Z,71.68
2023-03-04T07:53:08.159Z,56.45
2023-03-04T07:55:41.657Z,66.22
2023-03-04T07:58:19.878Z,62.65
2023-03-04T08:00:53.708Z,61.78
2023-03-04T08:03:27.800Z,72.25
2023-03-04T08:06:05.109Z,65.25
2023-03-04T08:08:39.185Z,62.42
2023-03-04T08:11:15.708Z,59.63
2023-03-04T08:13:50.260Z,44.75
2023-03-04T08:16:25.406Z,47.08
2023-03-04T08:19:01.898Z,47.15
2023-03-04T08:21:36.966Z,57.47
2023-03-04T08:24:12.504Z,52.80
2023-03-04T08:26:48.384Z,43.72
2023-03-04T08:29:24.319Z,44.42
2023-03-04T08:31:58.396Z,53.13
2023-03-04T08:34:32.858Z,38.38
2023-03-04T08:37:08.175Z,38.20
2023-03-04T08:39:41.770Z,30.77
2023-03-04T08:42:15.930Z,31.52
2023-03-04T08:44:49.492Z,27.33
2023-03-04T08:47:23.117Z,28.20
2023-03-04T08:49:58.587Z,26.27
2023-03-04T08:52:33.786Z,33.00
2023-03-04T08:55:08.031Z,34.63
2023-03-04T08:57:41.734Z,25.95
2023-03-04T09:00:16.239Z,37.33
2023-03-04T09:02:49.847Z,25.38
2023-03-04T09:05:23.433Z,23.40
2023-03-04T09:07:58.718Z,22.42
2023-03-04T09:10:32.283Z,19.98
2023-03-04T09:13:07.051Z,22.63
2023-03-04T09:15:46.021Z,24.08
2023-03-04T09:18:20.714Z,21.70
2023-03-04T09:20:54.857Z,21.15
2023-03-04T09:23:29.809Z,22.67
2023-03-04T09:26:05.985Z,21.98
2023-03-04T09:28:39.669Z,20.75
2023-03-04T09:31:14.513Z,18.40
2023-03-04T09:33:48.307Z,17.75
2023-03-04T09:36:22.344Z,17.67
2023-03-04T09:39:00.267Z,19.40
2023-03-04T09:41:40.498Z,21.17
2023-03-04T09:44:21.961Z,17.70
2023-03-04T09:46:58.724Z,15.85
2023-03-04T09:49:32.776Z,21.52
2023-03-04T09:52:15.852Z,20.35
2023-03-04T09:55:05.018Z,17.33
2023-03-04T09:57:48.071Z,16.90
2023-03-04T10:00:24.270Z,16.42
2023-03-04T10:03:19.806Z,18.25
2023-03-04T10:05:56.983Z,13.98
2023-03-04T10:08:42.850Z,15.73
2023-03-04T10:11:23.554Z,15.23
2023-03-04T10:14:11.822Z,17.83
2023-03-04T10:16:50.289Z,16.80
2023-03-04T10:19:35.362Z,14.25
2023-03-04T10:22:20.996Z,12.75
2023-03-04T10:24:57.081Z,11.55
2023-03-04T10:27:32.850Z,16.25
2023-03-04T10:30:20.144Z,13.73
2023-03-04T10:32:53.751Z,10.55
2023-03-04T10:35:34.694Z,12.13
2023-03-04T10:38:09.823Z,10.35
2023-03-04T10:40:45.867Z,12.27
2023-03-04T10:43:22.899Z,12.10
2023-03-04T10:45:58.613Z,10.98
2023-03-04T10:48:33.599Z,10.13
2023-03-04T10:51:18.204Z,10.07
2023-03-04T10:53:57.325Z,12.32
2023-03-04T10:56:34.820Z,16.25
2023-03-04T10:59:45.778Z,9.77
2023-03-04T11:02:23.565Z,9.32
2023-03-04T11:05:06.181Z,11.23
2023-03-04T11:07:54.511Z,9.73
2023-03-04T11:10:32.573Z,12.43
2023-03-04T11:13:17.114Z,16.27
2023-03-04T11:15:56.266Z,14.05
2023-03-04T11:18:43.791Z,16.00
2023-03-04T11:21:20.245Z,18.88
2023-03-04T11:23:58.006Z,16.85
2023-03-04T11:26:36.367Z,19.95
2023-03-04T11:29:16.016Z,15.65
2023-03-04T11:31:54.728Z,17.10
2023-03-04T11:34:37.846Z,16.52
2023-03-04T11:37:17.570Z,18.33
2023-03-04T11:39:55.846Z,20.25
2023-03-04T11:42:35.647Z,20.90
2023-03-04T11:45:27.774Z,17.63
2023-03-04T11:50:49.900Z,19.10
2023-03-04T11:53:34.734Z,19.85
2023-03-04T11:56:31.335Z,18.30
2023-03-04T11:59:45.397Z,16.10
2023-03-04T12:02:21.382Z,27.33
2023-03-04T12:05:20.920Z,22.55
2023-03-04T12:08:18.544Z,21.85
2023-03-04T12:10:59.580Z,19.77
2023-03-04T12:13:57.693Z,18.30
2023-03-04T12:16:59.746Z,15.30
2023-03-04T12:19:43.470Z,22.80
2023-03-04T12:22:31.108Z,22.40
2023-03-04T12:25:20.972Z,19.50
2023-03-04T12:28:04.862Z,18.05
2023-03-04T12:30:54.469Z,26.48
2023-03-04T12:33:36.883Z,21.58
2023-03-04T12:36:18.361Z,22.70
2023-03-04T12:39:14.177Z,23.92
2023-03-04T12:41:57.442Z,22.90
2023-03-04T12:44:35.780Z,21.38
2023-03-04T12:47:22.870Z,25.48
2023-03-04T12:50:08.754Z,26.50
2023-03-04T12:52:53.802Z,27.23
2023-03-04T12:55:37.394Z,26.15
2023-03-04T12:58:17.818Z,33.65
2023-03-04T13:00:59.169Z,26.05
2023-03-04T13:03:42.372Z,32.45
2023-03-04T13:06:33.444Z,30.05
2023-03-04T13:09:16.651Z,26.00
2023-03-04T13:12:05.407Z,32.38
2023-03-04T13:14:39.070Z,24.90
2023-03-04T13:17:43.614Z,25.25
2023-03-04T13:20:24.528Z,31.05
2023-03-04T13:22:59.432Z,29.17
2023-03-04T13:25:39.938Z,25.27
2023-03-04T13:28:29.436Z,29.35
2023-03-04T13:31:15.574Z,30.20
2023-03-04T13:34:00.902Z,27.70
2023-03-04T13:36:58.083Z,42.22
2023-03-04T13:39:36.385Z,31.77
2023-03-04T13:42:42.043Z,28.95
2023-03-04T13:45:36.110Z,33.47
2023-03-04T13:48:31.516Z,34.92
2023-03-04T13:51:05.455Z,33.67
2023-03-04T13:53:45.062Z,27.30
2023-03-04T13:56:34.893Z,30.10
2023-03-04T13:59:25.680Z,24.55
2023-03-04T14:02:03.562Z,23.45
2023-03-04T14:04:38.594Z,20.30
2023-03-04T14:07:25.633Z,18.98
2023-03-04T14:10:01.586Z,20.73
2023-03-04T14:12:37.232Z,22.38
2023-03-04T14:15:24.389Z,20.02
2023-03-04T14:18:01.161Z,19.90
2023-03-04T14:20:36.604Z,14.43
2023-03-04T14:23:25.733Z,19.52
2023-03-04T14:26:07.642Z,14.70
2023-03-04T14:28:45.847Z,15.13
2023-03-04T14:31:22.330Z,13.23
2023-03-04T14:34:02.239Z,16.42
2023-03-04T14:36:38.022Z,12.73
2023-03-04T14:39:17.564Z,10.63
2023-03-04T14:41:53.628Z,9.35
2023-03-04T14:44:35.884Z,8.35
2023-03-04T14:47:18.690Z,9.70
2023-03-04T14:52:39.787Z,7.47
2023-03-04T14:55:22.916Z,6.85
2023-03-04T14:58:08.265Z,4.90
2023-03-04T15:00:43.155Z,5.72
2023-03-04T15:03:23.913Z,11.88
2023-03-04T15:06:08.725Z,5.30
2023-03-04T15:08:42.348Z,6.75
2023-03-04T15:11:24.782Z,7.20
2023-03-04T15:13:59.468Z,8.00
2023-03-04T15:16:56.456Z,6.65
2023-03-04T15:19:30.915Z,5.32
2023-03-04T15:22:08.188Z,5.57
2023-03-04T15:24:41.697Z,8.30
2023-03-04T15:27:17.052Z,4.97
2023-03-04T15:29:50.617Z,6.55
2023-03-04T15:32:24.637Z,4.53
2023-03-04T15:34:58.504Z,8.60
2023-03-04T15:37:33.501Z,7.68
2023-03-04T15:40:14.484Z,13.43
2023-03-04T15:42:48.028Z,17.83
2023-03-04T15:45:24.238Z,6.55
2023-03-04T15:47:57.825Z,10.18
2023-03-04T15:50:31.902Z,13.80
2023-03-04T15:53:09.614Z,17.67
2023-03-04T15:55:44.818Z,31.50
2023-03-04T15:58:18.457Z,9.10
2023-03-04T16:00:52.062Z,10.07
2023-03-04T16:03:25.669Z,7.68
2023-03-04T16:05:59.627Z,18.98
2023-03-04T16:08:34.623Z,22.90
2023-03-04T16:11:08.526Z,294.48
2023-03-04T16:13:42.002Z,78.22
2023-03-04T16:16:16.397Z,22.92
2023-03-04T16:18:50.056Z,32.72
2023-03-04T16:21:24.308Z,17.50
2023-03-04T16:23:59.566Z,6.88
2023-03-04T16:26:33.812Z,7.82
2023-03-04T16:29:07.320Z,7.18
2023-03-04T16:31:40.882Z,7.45
2023-03-04T16:34:14.420Z,6.60
2023-03-04T16:36:48.027Z,4.60
2023-03-04T16:39:25.923Z,7.97
2023-03-04T16:41:59.492Z,7.15
2023-03-04T16:44:32.974Z,9.57
2023-03-04T16:47:07.979Z,8.43
2023-03-04T16:49:41.840Z,11.70
2023-03-04T16:52:23.243Z,11.73
2023-03-04T16:54:58.710Z,8.10
2023-03-04T16:57:32.187Z,7.40
2023-03-04T17:00:08.165Z,7.40
2023-03-04T17:02:41.985Z,8.93
2023-03-04T17:05:19.637Z,5.45
2023-03-04T17:07:53.084Z,9.75
2023-03-04T17:10:27.956Z,9.15
2023-03-04T17:13:01.445Z,6.68
2023-03-04T17:15:34.902Z,7.32
2023-03-04T17:18:08.442Z,13.07
2023-03-04T17:20:42.282Z,7.63
2023-03-04T17:23:15.928Z,8.77
2023-03-04T17:25:58.157Z,8.73
2023-03-04T17:28:32.362Z,6.00
2023-03-04T17:31:10.584Z,7.53
2023-03-04T17:33:44.697Z,7.22
2023-03-04T17:36:19.988Z,7.05
2023-03-04T17:38:53.531Z,5.82
2023-03-04T17:41:28.728Z,10.57
2023-03-04T17:44:02.370Z,7.30
2023-03-04T17:46:36.209Z,8.15
2023-03-04T17:49:12.148Z,6.38
2023-03-04T17:51:45.752Z,7.03
2023-03-04T17:54:22.953Z,7.15
2023-03-04T17:56:58.551Z,13.75
2023-03-04T17:59:32.070Z,8.90
2023-03-04T18:02:06.824Z,11.50
2023-03-04T18:04:40.348Z,6.18
2023-03-04T18:07:13.876Z,5.75
2023-03-04T18:09:47.413Z,9.10
2023-03-04T18:12:22.390Z,7.13
2023-03-04T18:14:55.927Z,6.88
2023-03-04T18:17:29.567Z,27.92
2023-03-04T18:20:03.055Z,7.00
2023-03-04T18:22:37.176Z,5.45
2023-03-04T18:25:12.687Z,14.10
2023-03-04T18:27:47.555Z,11.60
2023-03-04T18:30:27.185Z,5.43
2023-03-04T18:33:02.231Z,6.53
2023-03-04T18:35:35.797Z,5.25
2023-03-04T18:38:12.464Z,6.03
2023-03-04T18:40:45.957Z,9.10
2023-03-04T18:43:20.886Z,5.85
2023-03-04T18:46:05.535Z,5.15
2023-03-04T18:48:43.204Z,6.30
2023-03-04T18:51:16.740Z,6.57
2023-03-04T18:53:50.232Z,8.63
2023-03-04T18:56:28.149Z,4.50
2023-03-04T18:59:03.809Z,3.75
2023-03-04T19:01:38.371Z,6.15
2023-03-04T19:04:12.304Z,4.47
2023-03-04T19:06:45.943Z,6.03
2023-03-04T19:09:19.775Z,5.93
2023-03-04T19:11:53.235Z,6.22
2023-03-04T19:14:28.076Z,3.78
2023-03-04T19:17:02.694Z,5.60
2023-03-04T19:19:36.562Z,5.30
2023-03-04T19:22:10.113Z,5.35
2023-03-04T19:24:43.584Z,7.10
2023-03-04T19:27:17.056Z,7.22
2023-03-04T19:29:52.212Z,8.60
2023-03-04T19:32:26.249Z,6.82
2023-03-04T19:34:59.845Z,6.35
2023-03-04T19:37:33.346Z,7.20
2023-03-04T19:40:08.190Z,4.70
2023-03-04T19:42:41.684Z,14.25
2023-03-04T19:45:16.765Z,11.00
2023-03-04T19:47:50.228Z,7.28
2023-03-04T19:50:23.866Z,17.13
2023-03-04T19:52:57.516Z,65.40
2023-03-04T19:55:30.951Z,33.00
2023-03-04T19:58:04.422Z,32.30
2023-03-04T20:00:39.378Z,29.33
2023-03-04T20:03:13.373Z,18.27
2023-03-04T20:05:47.566Z,15.13
2023-03-04T20:08:21.054Z,17.00
2023-03-04T20:10:54.464Z,10.90
2023-03-04T20:13:29.089Z,7.50
2023-03-04T20:16:07.872Z,7.90
2023-03-04T20:18:42.400Z,5.22
2023-03-04T20:21:15.866Z,8.95
2023-03-04T20:23:49.305Z,7.22
2023-03-04T20:26:22.911Z,12.15
2023-03-04T20:28:56.556Z,9.38
2023-03-04T20:31:33.856Z,8.85
2023-03-04T20:34:09.054Z,8.13
2023-03-04T20:36:42.651Z,5.57
2023-03-04T20:39:28.131Z,7.40
2023-03-04T20:42:02.394Z,8.65
2023-03-04T20:44:36.039Z,8.10
2023-03-04T20:47:11.342Z,7.75
2023-03-04T20:49:44.804Z,8.38
2023-03-04T20:52:18.920Z,8.18
2023-03-04T20:54:52.388Z,9.63
2023-03-04T20:57:25.862Z,5.82
2023-03-04T20:59:59.324Z,6.13
2023-03-04T21:02:34.175Z,10.57
2023-03-04T21:05:08.457Z,12.20
2023-03-04T21:07:41.932Z,7.03
2023-03-04T21:10:18.104Z,8.43
2023-03-04T21:12:51.563Z,8.23
2023-03-04T21:15:25.005Z,8.23
2023-03-04T21:17:59.847Z,9.68
2023-03-04T21:20:33.331Z,7.95
2023-03-04T21:23:06.802Z,6.90
2023-03-04T21:25:40.872Z,8.18
2023-03-04T21:28:14.503Z,6.68
2023-03-04T21:30:48.122Z,6.25
2023-03-04T21:33:26.099Z,8.35
2023-03-04T21:35:59.677Z,9.48
2023-03-04T21:38:33.198Z,7.85
2023-03-04T21:41:06.662Z,8.13
2023-03-04T21:43:40.161Z,8.38
2023-03-04T21:46:14.819Z,8.98
2023-03-04T21:48:49.783Z,8.05
2023-03-04T21:51:23.333Z,17.50
2023-03-04T21:53:57.047Z,11.15
2023-03-04T21:56:30.530Z,10.95
2023-03-04T21:59:06.373Z,13.27
2023-03-04T22:01:39.899Z,5.40
2023-03-04T22:04:14.771Z,9.10
2023-03-04T22:06:48.389Z,11.40
2023-03-04T22:09:21.851Z,6.85
2023-03-04T22:11:55.305Z,15.27
2023-03-04T22:14:29.644Z,9.18
2023-03-04T22:17:03.173Z,14.50
2023-03-04T22:19:38.062Z,14.32
2023-03-04T22:22:11.521Z,13.90
2023-03-04T22:24:45.030Z,11.13
2023-03-04T22:27:18.527Z,6.57
2023-03-04T22:29:52.053Z,11.70
2023-03-04T22:32:25.664Z,12.82
2023-03-04T22:35:00.658Z,8.05
2023-03-04T22:37:34.269Z,12.52
2023-03-04T22:40:11.102Z,9.40
2023-03-04T22:42:45.501Z,16.92
2023-03-04T22:45:19.919Z,14.48
2023-03-04T22:47:53.876Z,11.07
2023-03-04T22:50:29.074Z,13.60
2023-03-04T22:53:02.552Z,13.65
2023-03-04T22:55:36.464Z,14.45
2023-03-04T22:58:09.963Z,12.85
2023-03-04T23:00:43.549Z,9.82
2023-03-04T23:03:17.079Z,9.63
2023-03-04T23:06:01.727Z,10.45
2023-03-04T23:08:35.741Z,10.15
2023-03-04T23:11:11.848Z,10.98
2023-03-04T23:13:45.467Z,10.95
2023-03-04T23:16:19.829Z,12.07
2023-03-04T23:18:53.708Z,9.57
2023-03-04T23:21:32.345Z,9.32
2023-03-04T23:24:08.039Z,10.02
2023-03-04T23:26:43.463Z,10.35
2023-03-04T23:29:17.415Z,15.25
2023-03-04T23:31:50.903Z,13.57
2023-03-04T23:34:24.342Z,16.17
2023-03-04T23:36:59.250Z,12.93
2023-03-04T23:39:32.696Z,17.20
2023-03-04T23:42:06.276Z,21.30
2023-03-04T23:44:39.717Z,11.10
2023-03-04T23:47:13.200Z,10.05
2023-03-04T23:49:46.638Z,14.43
2023-03-04T23:52:21.572Z,13.75
2023-03-04T23:54:55.028Z,8.68
2023-03-04T23:57:28.496Z,10.60
